Other Surface Observations
Issued by NWS Great Falls, MT

Home | Current Version | Previous Version | Text Only | Print | Product List | Glossary On
Versions: 1 2 3 4 5 6 7 8 9 10 11 12 13 14 15 16 17 18 19 20 21 22 23 24 25 26 27 28 29 30 31 32 33 34 35 36 37 38 39 40 41 42 43 44 45 46 47 48 49 50
557
SXUS55 KTFX 231914
OSOTFX
AREA AWOS OBSERVATIONS
NATIONAL WEATHER SERVICE GREAT FALLS MT
0114 PM MDT MON OCT 23 2017

METAR KPWD 231915Z AUTO 32030G38KT 10SM 11/M03 A3020 RMK PLENTYWOOD
METAR KPO1 231915Z AUTO 30021G36KT 9SM 14/M03 A3028 RMK POPLAR
METAR K1S3 231915Z AUTO 30020G28KT 13/M05 A3039 RMK FORSYTH
METAR KS71 231915Z AUTO 30015G20KT 10SM 14/M05 A3043 RMK CHINOOK
METAR K38S 231915Z AUTO 02003KT 10SM 09/M03 A3063 RMK DEER LODGE
METAR K3U3 231900Z AUTO 25011G15KT 10SM 08/M05 A3062 RMK ANACONDA
METAR K6S5 231915Z AUTO 12003KT 10SM 11/M03 A3066 RMK HAMILTON
METAR KS59 231915Z AUTO 06003KT 5SM 11/01 A3064 RMK LIBBY
METAR K88M 231915Z AUTO 10SM 12/M03 A3061 RMK EUREKA



USA.gov is the U.S. government's official web portal to all federal, state and local government web resources and services.